createdAt,value
2022-11-03T00:02:41.378Z,24.70
2022-11-03T00:06:03.614Z,22.80
2022-11-03T00:09:08.541Z,21.43
2022-11-03T00:12:11.832Z,13.20
2022-11-03T00:15:14.551Z,22.37
2022-11-03T00:18:17.763Z,21.43
2022-11-03T00:21:22.685Z,23.07
2022-11-03T00:24:25.389Z,20.80
2022-11-03T00:27:28.423Z,17.43
2022-11-03T00:30:31.152Z,17.73
2022-11-03T00:33:34.672Z,16.27
2022-11-03T00:36:40.786Z,18.60
2022-11-03T00:39:43.517Z,13.53
2022-11-03T00:42:46.625Z,14.97
2022-11-03T00:45:49.350Z,17.73
2022-11-03T00:48:53.067Z,24.40
2022-11-03T00:51:57.462Z,23.37
2022-11-03T00:55:00.238Z,20.63
2022-11-03T00:58:03.574Z,18.93
2022-11-03T01:01:08.857Z,23.60
2022-11-03T01:04:29.309Z,16.27
2022-11-03T01:07:33.889Z,19.17
2022-11-03T01:11:00.225Z,24.83
2022-11-03T01:14:04.068Z,21.60
2022-11-03T01:17:07.357Z,19.33
2022-11-03T01:20:10.709Z,20.77
2022-11-03T01:23:15.630Z,19.43
2022-11-03T01:26:19.235Z,19.10
2022-11-03T01:29:22.022Z,17.63
2022-11-03T01:32:24.710Z,14.07
2022-11-03T01:35:27.862Z,27.60
2022-11-03T01:38:34.965Z,17.47
2022-11-03T01:41:39.035Z,17.37
2022-11-03T01:44:47.393Z,19.83
2022-11-03T01:47:50.645Z,15.70
2022-11-03T01:50:53.968Z,18.33
2022-11-03T01:54:00.502Z,23.70
2022-11-03T01:57:07.868Z,18.70
2022-11-03T02:00:11.746Z,30.20
2022-11-03T02:03:16.124Z,21.87
2022-11-03T02:06:20.602Z,16.37
2022-11-03T02:09:25.390Z,17.03
2022-11-03T02:12:28.499Z,8.10
2022-11-03T02:15:33.248Z,13.17
2022-11-03T02:18:36.247Z,13.63
2022-11-03T02:21:50.379Z,11.93
2022-11-03T02:25:00.892Z,18.27
2022-11-03T02:28:07.467Z,18.30
2022-11-03T02:31:17.424Z,21.23
2022-11-03T02:34:28.278Z,18.80
2022-11-03T02:37:36.193Z,18.87
2022-11-03T02:40:45.868Z,14.97
2022-11-03T02:43:50.710Z,23.53
2022-11-03T02:47:01.912Z,18.43
2022-11-03T02:50:10.317Z,15.00
2022-11-03T02:53:14.487Z,16.23
2022-11-03T02:56:21.119Z,20.37
2022-11-03T02:59:28.145Z,13.30
2022-11-03T03:02:37.208Z,16.97
2022-11-03T03:05:42.037Z,9.27
2022-11-03T03:08:48.806Z,10.47
2022-11-03T03:11:54.748Z,9.07
2022-11-03T03:15:00.589Z,13.97
2022-11-03T03:18:13.794Z,17.83
2022-11-03T03:21:20.471Z,19.33
2022-11-03T03:24:32.450Z,14.87
2022-11-03T03:27:37.978Z,11.70
2022-11-03T03:30:43.571Z,19.80
2022-11-03T03:33:48.556Z,8.47
2022-11-03T03:36:52.503Z,9.77
2022-11-03T03:40:01.119Z,11.77
2022-11-03T03:43:07.769Z,3.07
2022-11-03T03:46:13.859Z,8.00
2022-11-03T03:49:16.627Z,10.43
2022-11-03T03:52:20.320Z,9.80
2022-11-03T03:55:28.672Z,19.43
2022-11-03T03:58:31.387Z,7.90
2022-11-03T04:01:36.114Z,15.03
2022-11-03T04:04:39.715Z,8.83
2022-11-03T04:07:48.470Z,13.83
2022-11-03T04:11:05.088Z,15.27
2022-11-03T04:14:25.504Z,21.87
2022-11-03T04:21:08.551Z,11.90
2022-11-03T04:24:11.555Z,45.03
2022-11-03T04:27:27.881Z,16.73
2022-11-03T04:30:30.810Z,26.53
2022-11-03T04:33:35.282Z,17.37
2022-11-03T04:36:38.000Z,11.53
2022-11-03T04:39:41.496Z,12.17
2022-11-03T04:42:44.831Z,8.80
2022-11-03T04:45:49.282Z,14.70
2022-11-03T04:48:53.937Z,11.93
2022-11-03T04:51:56.959Z,18.33
2022-11-03T04:54:59.683Z,8.63
2022-11-03T04:58:12.105Z,8.60
2022-11-03T05:01:22.463Z,12.07
2022-11-03T05:04:27.974Z,15.03
2022-11-03T05:07:35.620Z,18.07
2022-11-03T05:10:38.663Z,14.63
2022-11-03T05:13:42.077Z,5.30
2022-11-03T05:16:45.947Z,12.57
2022-11-03T05:19:51.373Z,11.80
2022-11-03T05:22:54.457Z,14.27
2022-11-03T05:25:59.786Z,20.77
2022-11-03T05:29:04.614Z,8.30
2022-11-03T05:32:13.086Z,11.67
2022-11-03T05:35:22.256Z,19.93
2022-11-03T05:38:25.017Z,14.20
2022-11-03T05:41:30.450Z,18.50
2022-11-03T05:44:36.819Z,8.03
2022-11-03T05:47:41.247Z,10.20
2022-11-03T05:50:45.575Z,10.27
2022-11-03T05:53:50.963Z,20.33
2022-11-03T05:56:55.033Z,11.67
2022-11-03T05:59:58.286Z,14.50
2022-11-03T06:03:01.941Z,12.07
2022-11-03T06:06:16.665Z,14.53
2022-11-03T06:09:22.654Z,16.77
2022-11-03T06:12:27.159Z,11.37
2022-11-03T06:15:32.327Z,11.90
2022-11-03T06:18:37.327Z,12.40
2022-11-03T06:21:44.536Z,21.17
2022-11-03T06:24:48.331Z,9.00
2022-11-03T06:27:52.373Z,12.63
2022-11-03T06:30:55.119Z,16.70
2022-11-03T06:33:58.687Z,18.73
2022-11-03T06:37:14.625Z,21.23
2022-11-03T06:40:36.026Z,14.17
2022-11-03T06:43:42.194Z,13.37
2022-11-03T06:46:45.101Z,9.13
2022-11-03T06:49:48.935Z,11.63
2022-11-03T06:52:55.612Z,12.70
2022-11-03T06:55:58.984Z,14.40
2022-11-03T06:59:02.072Z,6.93
2022-11-03T07:02:18.879Z,10.67
2022-11-03T07:05:24.642Z,11.40
2022-11-03T07:08:32.553Z,12.13
2022-11-03T07:11:46.193Z,12.93
2022-11-03T07:14:48.902Z,17.30
2022-11-03T07:17:52.265Z,7.97
2022-11-03T07:20:56.894Z,6.70
2022-11-03T07:24:04.334Z,9.53
2022-11-03T07:27:16.510Z,4.37
2022-11-03T07:30:21.601Z,8.17
2022-11-03T07:33:27.760Z,12.10
2022-11-03T07:36:33.251Z,9.53
2022-11-03T07:39:39.430Z,9.30
2022-11-03T07:42:42.437Z,4.10
2022-11-03T07:45:49.077Z,8.30
2022-11-03T07:48:54.482Z,9.87
2022-11-03T07:51:58.401Z,7.17
2022-11-03T07:55:02.503Z,5.83
2022-11-03T07:58:26.502Z,8.20
2022-11-03T08:01:32.614Z,5.73
2022-11-03T08:04:36.550Z,6.67
2022-11-03T08:07:39.396Z,7.27
2022-11-03T08:10:43.414Z,10.23
2022-11-03T08:13:46.066Z,9.10
2022-11-03T08:16:48.936Z,8.17
2022-11-03T08:19:51.787Z,8.63
2022-11-03T08:23:19.726Z,3.03
2022-11-03T08:26:18.545Z,10.67
2022-11-03T08:29:21.523Z,8.77
2022-11-03T08:32:24.332Z,4.90
2022-11-03T08:35:30.080Z,11.37
2022-11-03T08:38:36.040Z,9.07
2022-11-03T08:41:40.302Z,10.87
2022-11-03T08:44:42.999Z,16.13
2022-11-03T08:47:46.489Z,12.73
2022-11-03T08:50:50.425Z,12.47
2022-11-03T08:53:54.115Z,10.23
2022-11-03T08:56:58.243Z,14.43
2022-11-03T09:00:00.944Z,13.33
2022-11-03T09:03:03.770Z,15.07
2022-11-03T09:06:07.017Z,16.47
2022-11-03T09:12:33.757Z,18.93
2022-11-03T09:15:36.512Z,15.10
2022-11-03T09:18:39.246Z,17.67
2022-11-03T09:21:42.669Z,20.07
2022-11-03T09:24:45.406Z,19.50
2022-11-03T09:27:49.460Z,8.10
2022-11-03T09:30:52.144Z,13.97
2022-11-03T09:33:55.343Z,14.17
2022-11-03T09:36:59.302Z,17.53
2022-11-03T09:40:02.213Z,15.27
2022-11-03T09:43:06.618Z,9.43
2022-11-03T09:46:09.610Z,10.77
2022-11-03T09:49:15.816Z,12.30
2022-11-03T09:52:22.534Z,10.77
2022-11-03T09:55:27.260Z,9.30
2022-11-03T09:58:32.949Z,15.40
2022-11-03T10:01:35.883Z,15.67
2022-11-03T10:04:38.699Z,12.70
2022-11-03T10:07:43.546Z,15.03
2022-11-03T10:10:46.303Z,12.00
2022-11-03T10:13:54.627Z,16.07
2022-11-03T10:17:00.310Z,10.67
2022-11-03T10:20:07.176Z,18.47
2022-11-03T10:23:10.026Z,14.17
2022-11-03T10:26:16.391Z,17.23
2022-11-03T10:29:23.748Z,4.80
2022-11-03T10:32:34.492Z,13.90
2022-11-03T10:35:37.565Z,13.17
2022-11-03T10:38:40.266Z,15.73
2022-11-03T10:41:57.541Z,15.13
2022-11-03T10:45:15.681Z,16.63
2022-11-03T10:48:18.424Z,15.60
2022-11-03T10:51:21.128Z,10.53
2022-11-03T10:54:26.167Z,11.57
2022-11-03T10:57:29.601Z,13.27
2022-11-03T11:00:34.366Z,16.53
2022-11-03T11:03:42.696Z,17.17
2022-11-03T11:06:46.159Z,6.00
2022-11-03T11:09:49.524Z,11.50
2022-11-03T11:13:25.955Z,15.13
2022-11-03T11:16:51.780Z,11.40
2022-11-03T11:20:43.369Z,16.40
2022-11-03T11:23:47.196Z,12.67
2022-11-03T11:26:50.794Z,15.83
2022-11-03T11:29:53.549Z,13.83
2022-11-03T11:33:02.207Z,12.90
2022-11-03T11:36:20.189Z,21.17
2022-11-03T11:39:44.712Z,13.40
2022-11-03T11:43:24.650Z,7.60
2022-11-03T11:46:41.187Z,25.33
2022-11-03T11:49:45.378Z,17.53
2022-11-03T11:52:51.990Z,22.87
2022-11-03T11:55:57.805Z,19.83
2022-11-03T11:59:00.614Z,21.93
2022-11-03T12:02:04.689Z,13.73
2022-11-03T12:05:20.823Z,15.30
2022-11-03T12:08:29.828Z,14.43
2022-11-03T12:11:45.823Z,17.03
2022-11-03T12:14:49.641Z,19.90
2022-11-03T12:17:52.490Z,13.23
2022-11-03T12:20:56.880Z,13.37
2022-11-03T12:23:59.581Z,18.97
2022-11-03T12:27:03.113Z,16.47
2022-11-03T12:30:12.522Z,15.33
2022-11-03T12:33:15.168Z,15.20
2022-11-03T12:36:19.256Z,23.23
2022-11-03T12:39:21.928Z,24.33
2022-11-03T12:42:25.286Z,19.83
2022-11-03T12:45:28.259Z,20.03
2022-11-03T12:48:30.930Z,15.40
2022-11-03T12:51:35.078Z,7.07
2022-11-03T12:54:37.840Z,14.93
2022-11-03T12:57:40.523Z,17.93
2022-11-03T13:00:48.082Z,16.30
2022-11-03T13:03:56.683Z,22.93
2022-11-03T13:07:00.821Z,23.13
2022-11-03T13:10:05.049Z,41.13
2022-11-03T13:13:08.182Z,22.77
2022-11-03T13:16:11.394Z,24.07
2022-11-03T13:19:14.144Z,19.87
2022-11-03T13:22:18.187Z,19.50
2022-11-03T13:25:21.342Z,18.30
2022-11-03T13:28:24.079Z,23.07
2022-11-03T13:31:27.478Z,25.13
2022-11-03T13:34:30.777Z,24.17
2022-11-03T13:37:34.832Z,19.13
2022-11-03T13:44:00.561Z,18.27
2022-11-03T13:47:05.503Z,18.93
2022-11-03T13:50:14.502Z,15.60
2022-11-03T14:00:06.014Z,17.73
2022-11-03T14:06:31.841Z,27.87
2022-11-03T14:12:39.804Z,15.93
2022-11-03T14:15:42.811Z,19.87
2022-11-03T14:18:45.490Z,20.37
2022-11-03T14:21:48.259Z,10.50
2022-11-03T14:24:53.607Z,11.37
2022-11-03T14:27:56.294Z,23.67
2022-11-03T14:31:02.065Z,25.90
2022-11-03T14:34:05.122Z,17.53
2022-11-03T14:37:09.108Z,24.80
2022-11-03T14:40:34.277Z,23.60
2022-11-03T14:43:36.021Z,10.93
2022-11-03T14:46:38.818Z,20.20
2022-11-03T14:49:41.843Z,27.20
2022-11-03T14:52:44.605Z,18.73
2022-11-03T14:55:48.681Z,22.20
2022-11-03T14:58:51.560Z,18.50
2022-11-03T15:01:55.504Z,18.20
2022-11-03T15:04:58.529Z,20.90
2022-11-03T15:08:01.337Z,21.23
2022-11-03T15:11:08.139Z,23.10
2022-11-03T15:14:11.702Z,19.73
2022-11-03T15:17:14.407Z,19.23
2022-11-03T15:20:17.362Z,20.43
2022-11-03T15:26:44.488Z,22.93
2022-11-03T15:29:47.184Z,19.27
2022-11-03T15:32:50.157Z,20.43
2022-11-03T15:35:52.997Z,18.37
2022-11-03T15:38:55.883Z,22.10
2022-11-03T15:42:00.410Z,25.90
2022-11-03T15:45:03.702Z,55.67
2022-11-03T15:48:06.978Z,35.83
2022-11-03T15:51:10.354Z,12.83
2022-11-03T15:54:13.030Z,21.07
2022-11-03T15:57:17.083Z,21.37
2022-11-03T16:00:20.544Z,24.57
2022-11-03T16:03:23.468Z,19.10
2022-11-03T16:06:46.714Z,22.17
2022-11-03T16:09:49.364Z,23.97
2022-11-03T16:12:53.525Z,17.83
2022-11-03T16:15:56.206Z,24.50
2022-11-03T16:18:58.937Z,20.53
2022-11-03T16:22:01.945Z,18.17
2022-11-03T16:25:07.477Z,20.70
2022-11-03T16:28:16.060Z,17.10
2022-11-03T16:31:18.885Z,23.07
2022-11-03T16:34:21.963Z,19.93
2022-11-03T16:37:27.457Z,26.13
2022-11-03T16:40:30.166Z,26.00
2022-11-03T16:43:34.235Z,32.70
2022-11-03T16:46:36.959Z,23.10
2022-11-03T16:49:41.801Z,41.37
2022-11-03T16:52:44.994Z,42.60
2022-11-03T16:55:49.501Z,23.00
2022-11-03T16:58:53.746Z,20.70
2022-11-03T17:01:56.945Z,21.00
2022-11-03T17:04:59.776Z,20.00
2022-11-03T17:08:03.233Z,27.43
2022-11-03T17:11:06.160Z,27.80
2022-11-03T17:14:13.735Z,36.53
2022-11-03T17:17:16.656Z,31.90
2022-11-03T17:20:19.377Z,29.63
2022-11-03T17:23:22.080Z,35.20
2022-11-03T17:26:29.711Z,37.90
2022-11-03T17:29:36.719Z,41.07
2022-11-03T17:32:42.146Z,26.47
2022-11-03T17:35:46.670Z,48.63
2022-11-03T17:38:49.412Z,41.87
2022-11-03T17:41:52.191Z,45.63
2022-11-03T17:44:57.812Z,33.17
2022-11-03T17:48:00.579Z,25.67
2022-11-03T17:51:07.685Z,28.97
2022-11-03T17:54:16.819Z,32.07
2022-11-03T17:57:22.322Z,41.33
2022-11-03T18:00:26.461Z,28.77
2022-11-03T18:03:29.457Z,22.43
2022-11-03T18:06:32.190Z,22.93
2022-11-03T18:09:35.101Z,41.13
2022-11-03T18:12:58.347Z,24.33
2022-11-03T18:16:07.177Z,32.33
2022-11-03T18:19:12.819Z,25.73
2022-11-03T18:22:15.640Z,38.87
2022-11-03T18:25:21.221Z,47.83
2022-11-03T18:28:24.538Z,42.70
2022-11-03T18:31:36.203Z,37.43
2022-11-03T18:34:39.034Z,37.57
2022-11-03T18:37:44.124Z,25.30
2022-11-03T18:40:47.426Z,32.17
2022-11-03T18:43:50.398Z,26.27
2022-11-03T18:46:55.599Z,26.00
2022-11-03T18:49:58.534Z,23.97
2022-11-03T18:53:01.314Z,23.30
2022-11-03T18:56:04.476Z,22.17
2022-11-03T18:59:07.696Z,21.30
2022-11-03T19:02:18.824Z,15.00
2022-11-03T19:05:21.645Z,19.17
2022-11-03T19:08:28.035Z,28.37
2022-11-03T19:11:30.835Z,38.50
2022-11-03T19:14:36.878Z,38.17
2022-11-03T19:17:40.963Z,36.20
2022-11-03T19:20:43.671Z,25.37
2022-11-03T19:23:48.137Z,23.90
2022-11-03T19:26:58.117Z,32.67
2022-11-03T19:30:02.233Z,23.60
2022-11-03T19:33:07.456Z,25.27
2022-11-03T19:36:10.799Z,16.80
2022-11-03T19:39:18.591Z,25.60
2022-11-03T19:42:31.287Z,20.20
2022-11-03T19:45:34.112Z,31.40
2022-11-03T19:48:38.870Z,30.60
2022-11-03T19:51:42.087Z,32.00
2022-11-03T19:54:47.734Z,29.63
2022-11-03T19:57:50.429Z,27.10
2022-11-03T20:00:54.306Z,19.00
2022-11-03T20:03:58.389Z,31.97
2022-11-03T20:07:02.772Z,26.60
2022-11-03T20:10:06.458Z,19.33
2022-11-03T20:13:10.726Z,22.40
2022-11-03T20:16:14.960Z,21.97
2022-11-03T20:19:19.082Z,22.83
2022-11-03T20:22:28.649Z,27.40
2022-11-03T20:25:35.328Z,25.53
2022-11-03T20:28:39.121Z,21.80
2022-11-03T20:31:42.155Z,20.93
2022-11-03T20:34:46.954Z,21.20
2022-11-03T20:37:51.807Z,14.17
2022-11-03T20:40:58.880Z,21.87
2022-11-03T20:44:02.170Z,25.13
2022-11-03T20:47:05.232Z,51.53
2022-11-03T20:50:10.510Z,43.13
2022-11-03T20:53:16.721Z,27.43
2022-11-03T20:56:20.978Z,29.80
2022-11-03T20:59:24.720Z,30.43
2022-11-03T21:02:28.326Z,33.97
2022-11-03T21:05:32.475Z,26.77
2022-11-03T21:08:35.612Z,20.67
2022-11-03T21:11:40.485Z,22.07
2022-11-03T21:15:05.213Z,29.27
2022-11-03T21:18:27.796Z,26.27
2022-11-03T21:21:31.796Z,22.43
2022-11-03T21:24:34.468Z,27.33
2022-11-03T21:27:39.300Z,55.20
2022-11-03T21:30:45.215Z,28.93
2022-11-03T21:33:47.911Z,30.77
2022-11-03T21:36:51.910Z,35.50
2022-11-03T21:39:54.701Z,38.53
2022-11-03T21:43:14.921Z,35.23
2022-11-03T21:46:17.762Z,35.80
2022-11-03T21:49:38.321Z,42.53
2022-11-03T21:52:42.502Z,43.70
2022-11-03T21:55:48.468Z,43.60
2022-11-03T21:58:51.162Z,49.27
2022-11-03T22:01:55.096Z,42.07
2022-11-03T22:04:58.726Z,46.40
2022-11-03T22:08:03.249Z,35.17
2022-11-03T22:11:22.454Z,24.90
2022-11-03T22:14:26.663Z,31.60
2022-11-03T22:17:28.646Z,37.13
2022-11-03T22:20:48.706Z,29.83
2022-11-03T22:24:10.223Z,41.10
2022-11-03T22:27:13.481Z,37.10
2022-11-03T22:30:33.644Z,30.07
2022-11-03T22:33:56.812Z,41.80
2022-11-03T22:36:58.622Z,38.57
2022-11-03T22:40:20.573Z,34.00
2022-11-03T22:43:41.278Z,34.17
2022-11-03T22:46:44.571Z,33.87
2022-11-03T22:49:47.870Z,33.23
2022-11-03T22:52:50.856Z,38.33
2022-11-03T22:55:54.319Z,33.93
2022-11-03T22:58:57.301Z,40.23
2022-11-03T23:02:00.029Z,30.87
2022-11-03T23:05:04.787Z,32.37
2022-11-03T23:08:07.632Z,32.80
2022-11-03T23:11:16.322Z,37.17
2022-11-03T23:14:20.864Z,34.00
2022-11-03T23:17:44.195Z,40.30
2022-11-03T23:21:05.193Z,33.23
2022-11-03T23:24:26.129Z,29.07
2022-11-03T23:27:30.446Z,31.90
2022-11-03T23:30:33.116Z,25.73
2022-11-03T23:33:36.844Z,30.30
2022-11-03T23:36:39.949Z,34.83
2022-11-03T23:39:42.644Z,30.63
2022-11-03T23:42:46.747Z,29.93
2022-11-03T23:46:12.115Z,28.00
2022-11-03T23:49:15.559Z,25.33
2022-11-03T23:52:18.276Z,22.83
2022-11-03T23:55:21.204Z,19.10
2022-11-03T23:58:24.266Z,27.83
